Time;durP1;ratioP1;P1;durP2;ratioP2;P2;SDS_P1;SDS_P2;PMS_P1;PMS_P2;Temp;Humidity;BMP_temperature;BMP_pressure;BME280_temperature;BME280_humidity;BME280_pressure;Samples;Min_cycle;Max_cycle;Signal;HPM_P1;HPM_P2
2022/05/04 00:00:41;;;;;;;8.73;3.70;;;8.60;99.90;;;;;;5027194;28;20210;-89
2022/05/04 00:03:08;;;;;;;7.60;3.80;;;8.60;99.90;;;;;;5031130;28;20206;-91
2022/05/04 00:05:34;;;;;;;4.27;3.37;;;8.60;99.90;;;;;;5028944;28;20301;-81
2022/05/04 00:08:01;;;;;;;6.00;3.20;;;8.60;99.90;;;;;;5027219;28;20235;-88
2022/05/04 00:10:31;;;;;;;6.40;3.50;;;8.60;99.90;;;;;;5030195;28;20214;-90
2022/05/04 00:12:58;;;;;;;7.80;3.80;;;8.50;99.90;;;;;;5031033;28;20202;-89
2022/05/04 00:15:25;;;;;;;10.53;3.60;;;8.50;99.90;;;;;;5033540;28;20740;-88
2022/05/04 00:17:52;;;;;;;6.67;3.17;;;8.50;99.90;;;;;;5034077;28;20206;-84
2022/05/04 00:20:19;;;;;;;8.40;3.60;;;8.50;99.90;;;;;;5050824;28;20210;-90
2022/05/04 00:22:46;;;;;;;5.60;3.67;;;8.50;99.90;;;;;;5053062;28;20610;-85
2022/05/04 00:25:13;;;;;;;6.03;3.33;;;8.40;99.90;;;;;;5053424;28;20190;-89
2022/05/04 00:27:41;;;;;;;7.80;4.20;;;8.40;99.90;;;;;;5053982;28;20209;-89
2022/05/04 00:30:09;;;;;;;7.90;3.60;;;8.40;99.90;;;;;;5052771;28;20230;-89
2022/05/04 00:32:36;;;;;;;7.70;3.80;;;8.40;99.90;;;;;;5040653;28;20219;-88
2022/05/04 00:35:02;;;;;;;10.23;3.63;;;8.40;99.90;;;;;;5032763;28;20223;-89
2022/05/04 00:37:29;;;;;;;8.27;4.37;;;8.40;99.90;;;;;;5031382;28;20234;-80
2022/05/04 00:39:56;;;;;;;6.57;3.40;;;8.40;99.90;;;;;;5029149;28;20221;-88
2022/05/04 00:42:23;;;;;;;7.50;3.23;;;8.40;99.90;;;;;;5029761;28;20588;-80
2022/05/04 00:44:51;;;;;;;4.07;2.90;;;8.40;99.90;;;;;;5030171;28;20199;-83
2022/05/04 00:47:19;;;;;;;7.67;3.60;;;8.40;99.90;;;;;;5030065;28;20840;-80
2022/05/04 00:49:48;;;;;;;7.87;3.20;;;8.40;99.90;;;;;;5028344;28;20191;-81
2022/05/04 00:52:15;;;;;;;7.83;3.67;;;8.30;99.90;;;;;;5028479;28;20229;-84
2022/05/04 00:54:44;;;;;;;7.00;2.93;;;8.30;99.90;;;;;;5028761;28;20222;-81
2022/05/04 00:57:13;;;;;;;6.30;3.30;;;8.30;99.90;;;;;;5028311;28;20211;-79
2022/05/04 00:59:39;;;;;;;6.67;3.93;;;8.30;99.90;;;;;;5028604;28;20203;-80
2022/05/04 01:02:07;;;;;;;6.97;3.33;;;8.20;99.90;;;;;;5027541;28;20210;-84
2022/05/04 01:04:34;;;;;;;5.57;3.10;;;8.30;99.90;;;;;;5028446;28;20264;-83
2022/05/04 01:07:01;;;;;;;6.23;3.30;;;8.20;99.90;;;;;;5029140;28;20214;-81
2022/05/04 01:09:28;;;;;;;4.17;2.70;;;8.10;99.90;;;;;;5035047;28;20288;-83
2022/05/04 01:11:55;;;;;;;5.53;3.47;;;8.10;99.90;;;;;;5048674;28;20704;-87
2022/05/04 01:14:22;;;;;;;6.87;3.80;;;8.10;99.90;;;;;;5030443;28;20229;-82
2022/05/04 01:16:49;;;;;;;7.87;3.90;;;8.10;99.90;;;;;;5029422;28;20211;-82
2022/05/04 01:19:17;;;;;;;7.57;3.53;;;8.10;99.90;;;;;;5029689;28;20198;-88
2022/05/04 01:21:44;;;;;;;10.87;4.40;;;8.00;99.90;;;;;;5031744;28;20218;-82
2022/05/04 01:24:13;;;;;;;4.87;3.60;;;8.00;99.90;;;;;;5028427;28;20203;-83
2022/05/04 01:26:39;;;;;;;4.20;3.10;;;7.90;99.90;;;;;;5028497;28;20195;-79
2022/05/04 01:29:06;;;;;;;7.43;3.43;;;7.90;99.90;;;;;;5029462;28;20211;-80
2022/05/04 01:31:33;;;;;;;8.53;4.10;;;7.90;99.90;;;;;;5028981;28;20202;-82
2022/05/04 01:34:01;;;;;;;4.13;2.90;;;7.80;99.90;;;;;;5027955;28;20222;-81
2022/05/04 01:36:28;;;;;;;2.53;2.33;;;7.70;99.90;;;;;;5029408;28;20555;-83
2022/05/04 01:38:55;;;;;;;5.63;3.17;;;7.70;99.90;;;;;;5042661;28;20206;-82
2022/05/04 01:44:07;;;;;;;6.50;3.53;;;7.60;99.90;;;;;;5049189;28;20193;-81
2022/05/04 01:46:34;;;;;;;5.70;2.80;;;7.60;99.90;;;;;;5033253;28;20214;-85
2022/05/04 01:49:01;;;;;;;7.37;3.43;;;7.50;99.90;;;;;;5028382;28;20248;-84
2022/05/04 01:51:28;;;;;;;4.97;2.90;;;7.50;99.90;;;;;;5029512;28;20199;-82
2022/05/04 01:53:55;;;;;;;9.43;3.77;;;7.40;99.90;;;;;;5029366;28;20233;-82
2022/05/04 01:56:23;;;;;;;6.83;3.30;;;7.40;99.90;;;;;;5045894;28;20234;-80
2022/05/04 01:58:50;;;;;;;5.37;3.20;;;7.30;99.90;;;;;;5040762;28;20222;-83
2022/05/04 02:01:17;;;;;;;6.37;3.37;;;7.20;99.90;;;;;;5028183;28;20294;-84
2022/05/04 02:03:43;;;;;;;7.80;3.90;;;7.10;99.90;;;;;;5028575;28;20207;-82
2022/05/04 02:06:11;;;;;;;4.93;3.93;;;7.10;99.90;;;;;;5028613;28;20297;-86
2022/05/04 02:08:38;;;;;;;7.87;3.87;;;7.00;99.90;;;;;;5028041;28;20256;-85
2022/05/04 02:11:05;;;;;;;5.57;3.27;;;6.90;99.90;;;;;;5028067;28;20213;-86
2022/05/04 02:13:34;;;;;;;6.30;3.73;;;6.80;99.90;;;;;;5028813;28;20210;-86
2022/05/04 02:16:00;;;;;;;6.80;3.97;;;6.80;99.90;;;;;;5030595;28;20265;-82
2022/05/04 02:18:27;;;;;;;6.23;3.80;;;6.70;99.90;;;;;;5030714;28;20201;-81
2022/05/04 02:20:54;;;;;;;7.10;3.87;;;6.70;99.90;;;;;;5030486;28;20199;-86
2022/05/04 02:23:21;;;;;;;5.57;3.30;;;6.60;99.90;;;;;;5034338;28;20202;-87
2022/05/04 02:25:48;;;;;;;5.57;3.40;;;6.50;99.90;;;;;;5051227;28;20528;-86
2022/05/04 02:28:14;;;;;;;4.97;3.40;;;6.40;99.90;;;;;;5033964;28;20217;-88
2022/05/04 02:30:43;;;;;;;5.47;3.50;;;6.40;99.90;;;;;;5030141;28;20203;-88
2022/05/04 02:33:10;;;;;;;3.57;2.57;;;6.40;99.90;;;;;;5028872;28;20207;-83
2022/05/04 02:38:21;;;;;;;4.43;3.00;;;6.30;99.90;;;;;;5030709;28;20578;-88
2022/05/04 02:40:48;;;;;;;3.80;3.13;;;6.30;99.90;;;;;;5031457;28;20262;-82
2022/05/04 02:43:16;;;;;;;4.50;3.47;;;6.30;99.90;;;;;;5028832;28;20202;-82
2022/05/04 02:45:45;;;;;;;4.23;3.60;;;6.30;99.90;;;;;;5029869;28;20206;-85
2022/05/04 02:48:12;;;;;;;3.60;3.00;;;6.20;99.90;;;;;;5028209;28;20206;-82
2022/05/04 02:50:39;;;;;;;3.63;3.30;;;6.20;99.90;;;;;;5027651;28;20207;-81
2022/05/04 02:53:06;;;;;;;7.80;3.80;;;6.20;99.90;;;;;;5028188;28;20202;-83
2022/05/04 02:55:33;;;;;;;7.73;3.70;;;6.10;99.90;;;;;;5026813;28;20230;-81
2022/05/04 02:58:01;;;;;;;6.90;3.80;;;6.10;99.90;;;;;;5027411;28;20230;-83
2022/05/04 03:00:29;;;;;;;6.70;3.57;;;6.00;99.90;;;;;;5027414;28;20269;-81
2022/05/04 03:02:56;;;;;;;6.40;3.97;;;5.90;99.90;;;;;;5026812;28;20217;-80
2022/05/04 03:05:24;;;;;;;5.57;3.50;;;5.90;99.90;;;;;;5026038;28;20518;-80
2022/05/04 03:07:52;;;;;;;3.67;3.30;;;5.80;99.90;;;;;;5028235;28;20234;-81
2022/05/04 03:10:19;;;;;;;5.60;3.50;;;5.80;99.90;;;;;;5047304;28;20216;-83
2022/05/04 03:12:46;;;;;;;4.67;3.43;;;5.80;99.90;;;;;;5040272;28;20512;-83
2022/05/04 03:15:13;;;;;;;3.30;2.97;;;5.80;99.90;;;;;;5027503;28;20227;-83
2022/05/04 03:17:40;;;;;;;4.50;3.20;;;5.70;99.90;;;;;;5027808;28;20195;-84
2022/05/04 03:20:11;;;;;;;4.87;3.27;;;5.70;99.90;;;;;;5028024;28;20284;-88
2022/05/04 03:22:38;;;;;;;4.53;3.40;;;5.70;99.90;;;;;;5028045;28;20218;-82
2022/05/04 03:25:08;;;;;;;5.63;3.43;;;5.70;99.90;;;;;;5028291;28;20195;-82
2022/05/04 03:27:35;;;;;;;4.27;2.93;;;5.60;99.90;;;;;;5028707;28;20554;-85
2022/05/04 03:30:02;;;;;;;5.53;3.73;;;5.60;99.90;;;;;;5029198;28;20205;-82
2022/05/04 03:32:29;;;;;;;4.43;3.03;;;5.60;99.90;;;;;;5028211;28;20241;-89
2022/05/04 03:34:56;;;;;;;5.00;3.17;;;5.50;99.90;;;;;;5033319;28;20498;-91
2022/05/04 03:37:24;;;;;;;4.00;3.43;;;5.50;99.90;;;;;;5030791;28;20630;-91
2022/05/04 03:39:51;;;;;;;5.47;3.10;;;5.50;99.90;;;;;;5029735;28;20209;-89
2022/05/04 03:42:17;;;;;;;4.40;2.87;;;5.50;99.90;;;;;;5031846;28;20591;-90
2022/05/04 03:44:46;;;;;;;7.70;3.87;;;5.40;99.90;;;;;;5031966;28;20510;-89
2022/05/04 03:47:13;;;;;;;5.60;3.77;;;5.40;99.90;;;;;;5031951;28;20213;-93
2022/05/04 03:49:39;;;;;;;4.67;2.87;;;5.40;99.90;;;;;;5035027;28;20198;-92
2022/05/04 03:52:07;;;;;;;3.40;2.93;;;5.40;99.90;;;;;;5034864;28;20213;-86
2022/05/04 03:54:36;;;;;;;5.07;3.53;;;5.30;99.90;;;;;;5035544;28;20227;-91
2022/05/04 03:57:03;;;;;;;4.60;2.90;;;5.30;99.90;;;;;;5036266;28;20698;-89
2022/05/04 03:59:31;;;;;;;6.47;3.70;;;5.30;99.90;;;;;;5037063;28;20293;-89
2022/05/04 04:01:57;;;;;;;4.53;3.10;;;5.30;99.90;;;;;;5036165;28;20226;-91
2022/05/04 04:04:25;;;;;;;4.30;3.40;;;;;;;;;;5036501;28;20199;-91
2022/05/04 04:06:51;;;;;;;4.53;3.80;;;5.20;99.90;;;;;;5036068;28;20206;-89
2022/05/04 04:09:18;;;;;;;4.30;3.13;;;5.20;99.90;;;;;;5035289;28;20246;-91
2022/05/04 04:11:46;;;;;;;3.77;3.17;;;5.20;99.90;;;;;;5034843;28;20213;-91
2022/05/04 04:14:13;;;;;;;4.87;3.80;;;5.20;99.90;;;;;;5034937;28;20210;-88
2022/05/04 04:16:40;;;;;;;5.33;3.80;;;5.20;99.90;;;;;;5034942;28;20234;-90
2022/05/04 04:19:09;;;;;;;3.80;3.40;;;5.20;99.90;;;;;;5035880;28;20294;-91
2022/05/04 04:21:53;;;;;;;5.63;3.60;;;5.20;99.90;;;;;;5041968;28;20275;-89
2022/05/04 04:24:21;;;;;;;4.13;3.40;;;5.20;99.90;;;;;;5056513;28;20225;-88
2022/05/04 04:26:49;;;;;;;6.60;4.10;;;5.20;99.90;;;;;;5056509;28;20202;-89
2022/05/04 04:29:16;;;;;;;5.30;3.50;;;5.10;99.90;;;;;;5053659;28;20224;-87
2022/05/04 04:31:43;;;;;;;4.63;3.77;;;5.20;99.90;;;;;;5036969;28;20504;-91
2022/05/04 04:34:10;;;;;;;3.90;3.07;;;5.10;99.90;;;;;;5037088;28;20420;-85
2022/05/04 04:36:37;;;;;;;5.73;3.50;;;5.20;99.90;;;;;;5036339;28;20226;-85
2022/05/04 04:39:05;;;;;;;6.60;3.77;;;5.20;99.90;;;;;;5055122;28;20206;-90
2022/05/04 04:41:32;;;;;;;6.20;4.23;;;5.20;99.90;;;;;;5048894;28;20206;-85
2022/05/04 04:44:00;;;;;;;5.10;3.70;;;5.20;99.90;;;;;;5045092;28;20203;-88
2022/05/04 04:46:27;;;;;;;4.17;3.20;;;5.20;99.90;;;;;;5039404;28;20206;-84
2022/05/04 04:48:54;;;;;;;5.17;4.10;;;5.20;99.90;;;;;;5038151;28;20292;-90
2022/05/04 04:51:21;;;;;;;7.53;3.87;;;5.20;99.90;;;;;;5055159;28;20221;-86
2022/05/04 04:53:48;;;;;;;5.27;3.67;;;5.30;99.90;;;;;;5052023;28;20206;-81
2022/05/04 04:56:15;;;;;;;3.80;3.13;;;5.30;99.90;;;;;;5053463;28;20221;-90
2022/05/04 04:58:41;;;;;;;4.17;3.60;;;5.30;99.90;;;;;;5054494;28;20221;-89
2022/05/04 05:01:10;;;;;;;6.03;3.83;;;5.30;99.90;;;;;;5054719;28;20220;-90
2022/05/04 05:03:36;;;;;;;4.33;3.17;;;5.40;99.90;;;;;;5037832;28;20211;-89
2022/05/04 05:06:04;;;;;;;4.80;3.60;;;5.40;99.90;;;;;;5034803;28;20246;-87
2022/05/04 05:08:30;;;;;;;5.33;4.30;;;5.40;99.90;;;;;;5035340;28;20318;-89
2022/05/04 05:10:57;;;;;;;5.87;3.97;;;5.50;99.90;;;;;;5034864;28;20214;-89
2022/05/04 05:13:24;;;;;;;6.07;4.17;;;5.50;99.90;;;;;;5035168;28;20214;-91
2022/05/04 05:16:07;;;;;;;4.60;4.00;;;5.60;99.90;;;;;;5035070;28;20253;-91
2022/05/04 05:18:36;;;;;;;7.30;4.77;;;5.70;99.90;;;;;;5035368;28;20195;-86
2022/05/04 05:21:03;;;;;;;5.00;4.37;;;5.80;99.90;;;;;;5035105;28;20846;-89
2022/05/04 05:23:30;;;;;;;7.40;4.53;;;5.80;99.90;;;;;;5033801;28;20210;-82
2022/05/04 05:25:57;;;;;;;6.63;4.47;;;5.90;99.90;;;;;;5032425;28;20203;-92
2022/05/04 05:28:23;;;;;;;8.03;4.47;;;6.00;99.90;;;;;;5033462;28;20602;-89
2022/05/04 05:30:50;;;;;;;7.87;4.60;;;6.00;99.90;;;;;;5033038;28;20620;-90
2022/05/04 05:33:17;;;;;;;8.20;5.00;;;6.10;99.90;;;;;;5033802;28;20210;-90
2022/05/04 05:35:46;;;;;;;7.27;4.77;;;6.20;99.90;;;;;;5033805;28;20242;-89
2022/05/04 05:38:12;;;;;;;5.70;4.80;;;6.30;99.90;;;;;;5034362;28;20233;-91
2022/05/04 05:40:39;;;;;;;9.60;5.37;;;6.30;99.90;;;;;;5034910;28;20203;-90
2022/05/04 05:43:06;;;;;;;9.17;5.13;;;6.40;99.90;;;;;;5034030;28;20202;-87
2022/05/04 05:45:33;;;;;;;9.83;5.40;;;6.50;99.90;;;;;;5032550;28;20214;-86
2022/05/04 05:48:01;;;;;;;10.43;6.53;;;6.60;99.90;;;;;;5034302;28;20202;-86
2022/05/04 05:50:28;;;;;;;10.30;5.80;;;6.70;99.90;;;;;;5033649;28;20199;-90
2022/05/04 05:52:57;;;;;;;13.27;5.97;;;6.90;99.90;;;;;;5033765;28;20190;-84
2022/05/04 05:55:24;;;;;;;8.73;5.30;;;7.20;99.90;;;;;;5032143;28;20317;-90
2022/05/04 05:57:51;;;;;;;12.43;5.97;;;7.50;99.90;;;;;;5031002;28;20215;-91
2022/05/04 06:00:18;;;;;;;13.13;4.90;;;7.90;99.90;;;;;;5032175;28;20206;-91
2022/05/04 06:02:45;;;;;;;11.83;6.10;;;8.20;99.90;;;;;;5032633;28;20765;-91
2022/05/04 06:05:12;;;;;;;10.90;5.47;;;8.50;99.90;;;;;;5032771;28;20296;-92
2022/05/04 06:07:39;;;;;;;9.30;4.97;;;8.90;99.90;;;;;;5031897;28;20349;-90
2022/05/04 06:10:08;;;;;;;16.10;6.53;;;9.30;99.90;;;;;;5032341;28;20202;-88
2022/05/04 06:12:35;;;;;;;8.67;4.20;;;9.80;99.90;;;;;;5032523;28;20354;-88
2022/05/04 06:15:02;;;;;;;6.60;3.90;;;10.20;99.90;;;;;;5032089;28;20214;-93
2022/05/04 06:17:29;;;;;;;7.67;4.40;;;10.50;99.90;;;;;;5032021;28;20256;-90
2022/05/04 06:19:56;;;;;;;7.47;3.57;;;10.90;99.90;;;;;;5031854;28;20217;-89
2022/05/04 06:22:23;;;;;;;5.23;2.90;;;11.20;99.90;;;;;;5032087;28;20206;-90
2022/05/04 06:24:50;;;;;;;6.40;2.97;;;11.60;99.90;;;;;;5034122;28;20214;-89
2022/05/04 06:27:18;;;;;;;7.10;3.00;;;11.90;99.90;;;;;;5033564;28;20252;-88
2022/05/04 06:35:13;;;;;;;4.77;2.37;;;12.80;99.90;;;;;;5033277;28;20684;-88
2022/05/04 06:37:40;;;;;;;8.53;2.50;;;13.10;99.90;;;;;;5032029;28;20230;-87
2022/05/04 06:40:08;;;;;;;4.90;2.10;;;13.30;99.90;;;;;;5032093;28;20485;-89
2022/05/04 06:42:36;;;;;;;6.37;2.27;;;13.50;99.90;;;;;;5031344;28;20501;-89
2022/05/04 06:45:04;;;;;;;4.77;2.37;;;13.40;99.90;;;;;;5031150;28;20587;-89
2022/05/04 06:47:31;;;;;;;5.53;2.47;;;13.60;99.90;;;;;;5028774;28;20209;-83
2022/05/04 06:49:59;;;;;;;9.30;2.67;;;13.60;99.90;;;;;;5025810;28;20219;-82
2022/05/04 06:52:27;;;;;;;7.47;2.27;;;13.90;99.90;;;;;;5028910;28;20218;-86
2022/05/04 06:54:54;;;;;;;5.33;2.20;;;14.20;99.90;;;;;;5030020;28;20211;-85
2022/05/04 06:57:21;;;;;;;6.37;2.47;;;14.50;99.90;;;;;;5030831;28;20198;-86
2022/05/04 06:59:50;;;;;;;5.80;2.67;;;14.70;99.90;;;;;;5031155;28;20226;-87
2022/05/04 07:02:17;;;;;;;6.67;2.60;;;14.90;99.90;;;;;;5031113;28;20202;-87
2022/05/04 07:04:44;;;;;;;3.55;2.17;;;15.20;99.90;;;;;;5030742;28;20207;-89
2022/05/04 07:07:10;;;;;;;3.25;2.00;;;15.40;99.90;;;;;;5030198;28;20215;-87
2022/05/04 07:09:37;;;;;;;6.45;2.53;;;15.60;99.90;;;;;;5031846;28;20547;-85
2022/05/04 07:12:06;;;;;;;7.38;2.40;;;15.90;99.90;;;;;;5042817;28;20213;-84
2022/05/04 07:14:33;;;;;;;5.47;2.45;;;16.00;99.90;;;;;;5045092;28;20613;-83
2022/05/04 07:17:01;;;;;;;5.30;2.70;;;16.20;99.90;;;;;;5031636;28;20786;-87
2022/05/04 07:19:28;;;;;;;7.00;2.30;;;16.40;99.90;;;;;;5032327;28;20195;-87
2022/05/04 07:21:55;;;;;;;5.50;2.10;;;16.40;99.90;;;;;;5030837;28;20210;-83
2022/05/04 07:24:21;;;;;;;4.78;2.33;;;16.30;99.90;;;;;;5029031;28;20669;-87
2022/05/04 07:26:48;;;;;;;5.15;3.05;;;16.30;99.90;;;;;;5029686;28;20198;-86
2022/05/04 07:29:15;;;;;;;6.70;2.53;;;16.30;99.90;;;;;;5031284;28;20249;-88
2022/05/04 07:31:43;;;;;;;4.95;2.00;;;16.50;99.90;;;;;;5032540;28;20288;-88
2022/05/04 07:34:11;;;;;;;5.38;2.28;;;16.80;99.90;;;;;;5032062;28;20203;-86
2022/05/04 07:36:39;;;;;;;6.05;2.00;;;16.90;99.90;;;;;;5031990;28;20226;-87
2022/05/04 07:39:06;;;;;;;2.83;1.83;;;17.00;99.90;;;;;;5031218;28;20211;-84
2022/05/04 07:44:17;;;;;;;6.10;1.98;;;16.70;99.90;;;;;;5032239;28;20194;-86
2022/05/04 07:46:45;;;;;;;4.85;2.03;;;16.50;99.90;;;;;;5040343;28;20205;-84
2022/05/04 07:49:13;;;;;;;3.63;1.80;;;16.60;99.90;;;;;;5051800;28;20202;-85
2022/05/04 07:51:40;;;;;;;10.25;2.42;;;16.70;99.90;;;;;;5050375;28;20202;-88
2022/05/04 07:54:07;;;;;;;3.95;1.95;;;16.90;99.90;;;;;;5050180;28;20862;-84
2022/05/04 07:56:36;;;;;;;4.70;1.90;;;16.90;99.90;;;;;;5030530;28;20694;-84
2022/05/04 07:59:03;;;;;;;5.20;1.92;;;17.20;99.90;;;;;;5029901;28;20252;-89
2022/05/04 08:04:20;;;;;;;4.32;1.88;;;17.30;99.90;;;;;;5045734;28;20256;-85
2022/05/04 08:06:47;;;;;;;4.35;2.17;;;17.10;99.90;;;;;;5049387;28;20194;-87
2022/05/04 08:09:14;;;;;;;5.07;2.35;;;16.80;99.90;;;;;;5048811;28;20240;-87
2022/05/04 08:11:41;;;;;;;2.60;1.67;;;16.60;99.90;;;;;;5041683;28;20221;-84
2022/05/04 08:14:08;;;;;;;3.08;1.40;;;16.80;99.90;;;;;;5028248;28;20237;-86
2022/05/04 08:16:35;;;;;;;5.82;2.20;;;16.80;99.90;;;;;;5026903;28;20219;-87
2022/05/04 08:19:03;;;;;;;4.95;2.00;;;16.90;99.90;;;;;;5027559;28;20214;-86
2022/05/04 08:21:31;;;;;;;4.45;2.08;;;16.90;99.90;;;;;;5029979;28;20261;-85
2022/05/04 08:23:58;;;;;;;3.92;1.80;;;16.90;99.90;;;;;;5029125;28;20214;-86
2022/05/04 08:26:25;;;;;;;4.88;2.38;;;16.90;99.90;;;;;;5030253;28;20199;-85
2022/05/04 08:28:52;;;;;;;3.45;2.15;;;17.10;99.90;;;;;;5029801;28;20218;-84
2022/05/04 08:31:19;;;;;;;3.67;1.77;;;17.40;99.90;;;;;;5029795;28;20529;-83
2022/05/04 08:33:47;;;;;;;4.13;1.92;;;17.60;99.90;;;;;;5030486;28;20603;-85
2022/05/04 08:36:14;;;;;;;4.88;1.73;;;17.80;99.90;;;;;;5033710;28;20227;-89
2022/05/04 08:38:42;;;;;;;6.07;1.83;;;17.80;99.90;;;;;;5033709;28;20494;-85
2022/05/04 08:41:09;;;;;;;4.70;1.80;;;17.80;99.90;;;;;;5033620;28;20206;-87
2022/05/04 08:43:36;;;;;;;4.82;1.67;;;17.90;99.90;;;;;;5030929;28;20218;-88
2022/05/04 08:46:05;;;;;;;4.38;1.83;;;18.10;99.90;;;;;;5033007;28;20198;-88
2022/05/04 08:48:33;;;;;;;3.42;1.90;;;18.30;99.90;;;;;;5032878;28;20233;-84
2022/05/04 08:51:02;;;;;;;5.45;1.67;;;18.30;99.90;;;;;;5043791;28;20233;-83
2022/05/04 08:53:29;;;;;;;3.95;1.80;;;18.40;99.90;;;;;;5051881;28;20230;-86
2022/05/04 08:55:59;;;;;;;3.33;1.90;;;18.40;99.90;;;;;;5051586;28;20228;-82
2022/05/04 08:58:25;;;;;;;2.65;1.77;;;18.40;99.90;;;;;;5053163;28;20217;-88
2022/05/04 09:00:52;;;;;;;4.63;1.77;;;18.70;99.90;;;;;;5053563;28;20197;-84
2022/05/04 09:03:21;;;;;;;3.65;1.90;;;19.00;99.90;;;;;;5053634;28;20204;-89
2022/05/04 09:05:49;;;;;;;2.85;2.10;;;19.20;99.90;;;;;;5053974;28;20198;-88
2022/05/04 09:08:16;;;;;;;5.43;2.10;;;19.10;99.90;;;;;;5036766;28;20249;-90
2022/05/04 09:10:44;;;;;;;7.47;2.47;;;18.80;99.90;;;;;;5032966;28;20213;-89
2022/05/04 09:13:13;;;;;;;3.40;1.60;;;18.20;99.90;;;;;;5033011;28;20963;-88
2022/05/04 09:15:41;;;;;;;3.83;1.75;;;18.20;99.90;;;;;;5036792;28;20609;-86
2022/05/04 09:18:10;;;;;;;5.13;1.60;;;18.30;99.90;;;;;;5053736;28;20190;-87
2022/05/04 09:20:55;;;;;;;5.97;1.90;;;18.50;99.90;;;;;;5053083;28;20214;-86
2022/05/04 09:23:24;;;;;;;5.05;2.05;;;18.60;99.90;;;;;;5037712;28;20229;-90
2022/05/04 09:25:53;;;;;;;5.28;2.35;;;18.70;99.90;;;;;;5032759;28;20249;-86
2022/05/04 09:28:24;;;;;;;7.15;2.40;;;18.70;99.90;;;;;;5032972;28;20607;-88
2022/05/04 09:30:52;;;;;;;6.93;2.47;;;18.80;99.90;;;;;;5032860;28;20256;-87
2022/05/04 09:33:21;;;;;;;7.90;2.65;;;18.90;99.90;;;;;;5031945;28;20205;-87
2022/05/04 09:35:48;;;;;;;7.00;2.10;;;18.90;99.90;;;;;;5032996;28;20213;-88
2022/05/04 09:46:37;;;;;;;3.38;1.70;;;19.70;99.90;;;;;;5053496;28;20883;-87
2022/05/04 09:49:10;;;;;;;4.20;1.92;;;19.50;99.90;;;;;;5053076;28;20852;-86
2022/05/04 09:51:38;;;;;;;5.25;1.90;;;19.40;99.90;;;;;;5039737;28;20241;-86
2022/05/04 09:54:22;;;;;;;4.00;1.95;;;19.10;99.90;;;;;;5037142;28;20227;-87
2022/05/04 09:56:52;;;;;;;4.95;2.15;;;18.80;99.90;;;;;;5050140;28;20225;-87
2022/05/04 09:59:22;;;;;;;6.28;2.30;;;18.80;99.90;;;;;;5035952;28;20211;-88
2022/05/04 10:01:51;;;;;;;6.22;2.38;;;18.80;99.90;;;;;;5028972;28;20732;-87
2022/05/04 10:04:18;;;;;;;3.95;2.47;;;18.80;99.90;;;;;;5029546;28;20222;-87
2022/05/04 10:06:45;;;;;;;5.40;2.25;;;18.90;99.90;;;;;;5029207;28;20286;-83
2022/05/04 10:09:12;;;;;;;4.90;1.90;;;18.90;99.90;;;;;;5030044;28;20274;-88
2022/05/04 10:11:39;;;;;;;4.60;1.92;;;18.90;99.90;;;;;;5029295;28;20203;-85
2022/05/04 10:14:10;;;;;;;6.45;2.25;;;19.00;99.90;;;;;;5049399;28;20220;-90
2022/05/04 10:16:43;;;;;;;3.15;1.90;;;19.10;99.90;;;;;;5050754;28;20267;-87
2022/05/04 10:19:17;;;;;;;3.53;1.75;;;19.10;99.90;;;;;;5048905;28;20198;-87
2022/05/04 10:21:44;;;;;;;5.85;2.45;;;19.30;99.90;;;;;;5048750;28;20288;-87
2022/05/04 10:24:13;;;;;;;4.30;1.80;;;19.40;99.90;;;;;;5048379;28;20276;-90
2022/05/04 10:26:40;;;;;;;5.43;2.17;;;19.30;99.90;;;;;;5048304;28;20257;-87
2022/05/04 10:35:24;;;;;;;5.57;2.17;;;18.90;99.90;;;;;;5123016;27;20511;-84
2022/05/04 10:38:03;;;;;;;5.90;2.08;;;19.00;99.90;;;;;;5092471;28;20881;-88
2022/05/04 10:40:33;;;;;;;4.38;2.33;;;19.20;99.90;;;;;;5087044;28;20350;-85
2022/05/04 10:43:02;;;;;;;4.50;1.70;;;19.40;99.90;;;;;;5086642;28;20518;-86
2022/05/04 10:45:31;;;;;;;5.30;2.05;;;19.60;99.90;;;;;;5086344;28;20246;-83
2022/05/04 10:48:35;;;;;;;5.75;1.83;;;19.90;99.90;;;;;;5084749;28;20204;-86
2022/05/04 10:51:21;;;;;;;6.80;2.00;;;19.70;99.90;;;;;;5084615;28;20623;-85
2022/05/04 10:53:50;;;;;;;6.95;2.15;;;19.60;99.90;;;;;;5085717;28;20434;-84
2022/05/04 10:56:18;;;;;;;6.50;2.08;;;19.30;99.90;;;;;;5086760;28;20204;-86
2022/05/04 10:58:57;;;;;;;5.28;1.80;;;19.10;99.90;;;;;;5089009;28;20207;-83
2022/05/04 11:01:26;;;;;;;5.22;2.30;;;18.90;99.90;;;;;;5087489;28;20207;-84
2022/05/04 11:04:04;;;;;;;4.20;2.03;;;18.70;99.90;;;;;;5088716;28;20201;-82
2022/05/04 11:06:35;;;;;;;5.43;2.03;;;18.70;99.90;;;;;;5088339;28;20218;-85
2022/05/04 11:09:07;;;;;;;4.30;1.92;;;18.50;99.90;;;;;;5085743;28;20193;-86
2022/05/04 11:11:35;;;;;;;4.35;1.80;;;18.40;99.90;;;;;;5085833;28;20201;-88
2022/05/04 11:14:01;;;;;;;4.82;2.15;;;18.20;99.90;;;;;;5087495;28;20217;-87
2022/05/04 11:16:29;;;;;;;5.78;2.13;;;18.00;99.90;;;;;;5085985;28;20216;-87
2022/05/04 11:18:56;;;;;;;7.53;2.78;;;17.70;99.90;;;;;;5088310;28;20228;-86
2022/05/04 11:21:22;;;;;;;6.40;2.63;;;17.60;99.90;;;;;;5087614;28;20200;-86
2022/05/04 11:23:52;;;;;;;6.28;2.38;;;17.60;99.90;;;;;;5086854;28;20204;-86
2022/05/04 11:26:21;;;;;;;3.53;1.85;;;17.60;99.90;;;;;;5088209;28;20204;-87
2022/05/04 11:28:48;;;;;;;5.45;2.00;;;17.70;99.90;;;;;;5087541;28;20211;-86
2022/05/04 11:31:15;;;;;;;7.45;1.85;;;17.60;99.90;;;;;;5086732;28;20216;-89
2022/05/04 11:33:46;;;;;;;8.77;2.08;;;17.60;99.90;;;;;;5087205;28;20229;-87
2022/05/04 11:36:13;;;;;;;4.57;2.28;;;17.60;99.90;;;;;;5086009;28;20196;-83
2022/05/04 11:38:44;;;;;;;7.00;2.33;;;17.40;99.90;;;;;;5086220;28;20192;-87
2022/05/04 11:41:13;;;;;;;4.68;1.98;;;17.50;99.90;;;;;;5086377;28;20228;-88
2022/05/04 11:43:40;;;;;;;6.22;2.45;;;17.70;99.90;;;;;;5086850;28;20208;-88
2022/05/04 11:46:09;;;;;;;5.60;2.22;;;18.10;99.90;;;;;;5074093;28;20464;-87
2022/05/04 11:48:38;;;;;;;6.57;2.10;;;18.30;99.90;;;;;;5071007;28;20208;-88
2022/05/04 11:51:05;;;;;;;4.72;2.13;;;18.60;99.90;;;;;;5071597;28;20202;-85
2022/05/04 11:53:34;;;;;;;7.35;3.15;;;18.50;99.90;;;;;;5072906;28;20240;-85
2022/05/04 11:56:03;;;;;;;5.80;2.08;;;18.50;99.90;;;;;;5072263;28;20236;-85
2022/05/04 11:58:32;;;;;;;2.95;1.92;;;18.40;99.90;;;;;;5070294;28;20210;-87
2022/05/04 12:01:00;;;;;;;2.92;1.70;;;18.40;99.90;;;;;;5069289;28;20543;-84
2022/05/04 12:03:29;;;;;;;9.10;2.97;;;18.60;99.90;;;;;;5050913;28;20209;-87
2022/05/04 12:05:56;;;;;;;8.30;2.30;;;18.40;99.90;;;;;;5050804;28;20206;-88
2022/05/04 12:08:24;;;;;;;4.80;2.05;;;18.20;99.90;;;;;;5050951;28;20210;-87
2022/05/04 12:10:52;;;;;;;6.70;2.55;;;18.00;99.90;;;;;;5059775;28;20201;-88
2022/05/04 12:13:23;;;;;;;6.60;2.10;;;18.00;99.90;;;;;;5069821;28;20201;-87
2022/05/04 12:15:54;;;;;;;5.15;1.95;;;17.80;99.90;;;;;;5070590;28;20209;-85
2022/05/04 12:18:22;;;;;;;6.60;2.00;;;17.70;99.90;;;;;;5069301;28;20229;-87
2022/05/04 12:20:49;;;;;;;3.83;2.17;;;17.70;99.90;;;;;;5068368;28;20213;-91
2022/05/04 12:23:16;;;;;;;5.82;2.28;;;17.80;99.90;;;;;;5069397;28;20664;-85
2022/05/04 12:25:44;;;;;;;6.13;2.15;;;17.70;99.90;;;;;;5069868;28;20206;-84
2022/05/04 12:28:11;;;;;;;4.45;2.10;;;17.40;99.90;;;;;;5069771;28;20208;-86
2022/05/04 12:33:33;;;;;;;3.80;1.92;;;17.60;99.90;;;;;;5069377;28;20533;-83
2022/05/04 12:36:02;;;;;;;7.00;2.60;;;17.70;99.90;;;;;;5071242;28;20825;-85
2022/05/04 12:38:28;;;;;;;3.97;2.17;;;17.70;99.90;;;;;;5070376;28;20212;-86
2022/05/04 12:40:55;;;;;;;5.07;2.65;;;17.80;99.90;;;;;;5067427;28;20574;-85
2022/05/04 12:43:24;;;;;;;5.97;2.38;;;17.90;99.90;;;;;;5067279;28;20208;-86
2022/05/04 12:45:54;;;;;;;6.22;2.08;;;18.00;99.90;;;;;;5067873;28;20601;-82
2022/05/04 12:48:24;;;;;;;6.78;2.15;;;17.90;99.90;;;;;;5066334;28;20204;-86
2022/05/04 12:50:54;;;;;;;6.07;2.50;;;17.70;99.90;;;;;;5067591;28;20656;-83
2022/05/04 12:53:24;;;;;;;5.95;2.30;;;17.70;99.90;;;;;;5068025;28;20569;-89
2022/05/04 12:58:35;;;;;;;6.38;2.58;;;17.70;99.90;;;;;;5066855;28;20200;-82
2022/05/04 13:01:03;;;;;;;7.07;2.20;;;17.70;99.90;;;;;;5067277;28;20197;-83
2022/05/04 13:03:30;;;;;;;6.20;2.75;;;17.60;99.90;;;;;;5068124;28;20264;-85
2022/05/04 13:05:58;;;;;;;4.50;2.33;;;17.60;99.90;;;;;;5066075;28;20217;-83
2022/05/04 13:08:25;;;;;;;8.23;2.42;;;17.50;99.90;;;;;;5067400;28;20756;-81
2022/05/04 13:10:52;;;;;;;8.57;2.60;;;17.40;99.90;;;;;;5067951;28;20571;-81
2022/05/04 13:13:20;;;;;;;4.63;2.20;;;17.30;99.90;;;;;;5068322;28;20212;-81
2022/05/04 13:15:47;;;;;;;6.60;2.80;;;17.20;99.90;;;;;;5066839;28;20236;-82
2022/05/04 13:18:15;;;;;;;9.02;2.83;;;17.30;99.90;;;;;;5067345;28;20205;-81
2022/05/04 13:20:42;;;;;;;4.97;2.33;;;17.30;99.90;;;;;;5068013;28;20540;-88
2022/05/04 13:23:10;;;;;;;5.85;2.65;;;17.40;99.90;;;;;;5068153;28;20216;-82
2022/05/04 13:25:37;;;;;;;6.88;2.40;;;17.30;99.90;;;;;;5067806;28;20205;-84
2022/05/04 13:28:05;;;;;;;3.58;2.30;;;17.20;99.90;;;;;;5066764;28;20209;-81
2022/05/04 13:30:32;;;;;;;5.40;2.05;;;17.00;99.90;;;;;;5067145;28;20201;-85